Welcome to La Porte Aviation Services!

An aviation adventure awaits

Current Weather Conditions

Available data for KPPO from the past 2 hours
LA PORTE, IN
Metar
KPPO 260235Z AUTO 36011KT 10SM CLR 00/M05 A3032 RMK AO2 T10021051

02:35 UTC

Wind: 360° 11kt

Visibility: 10 SM

Sky:

Temp: 0 deg C / 32 deg F

Dewpoint: -5 deg C / 23 deg F

Pressure: 30.32 inHg

Connect with us on Facebook!

Facebook By Weblizar Powered By Weblizar